Time;durP1;ratioP1;P1;durP2;ratioP2;P2;SDS_P1;SDS_P2;PMS_P1;PMS_P2;Temp;Humidity;BMP_temperature;BMP_pressure;BME280_temperature;BME280_humidity;BME280_pressure;Samples;Min_cycle;Max_cycle;Signal;HPM_P1;HPM_P2
2021/12/19 00:04:44;;;;;;;14.20;3.95;;;;;;;;;;4969020;28;20086;-78
2021/12/19 00:09:56;;;;;;;14.25;6.63;;;;;;;;;;4968796;28;20838;-78
2021/12/19 00:12:24;;;;;;;13.15;4.63;;;;;;;;;;4951141;28;20178;-78
2021/12/19 00:14:51;;;;;;;23.63;5.78;;;;;;;;;;4967215;28;20065;-78
2021/12/19 00:17:18;;;;;;;20.77;5.38;;;;;;;;;;4962872;28;20089;-78
2021/12/19 00:19:45;;;;;;;9.95;3.47;;;;;;;;;;4965060;28;20054;-78
2021/12/19 00:22:13;;;;;;;11.40;3.50;;;;;;;;;;4961202;28;21287;-85
2021/12/19 00:24:40;;;;;;;9.65;3.40;;;;;;;;;;4973319;28;20109;-84
2021/12/19 00:27:08;;;;;;;12.57;3.72;;;;;;;;;;4970264;28;20089;-85
2021/12/19 00:29:35;;;;;;;11.35;2.80;;;;;;;;;;4955811;28;20157;-85
2021/12/19 00:32:02;;;;;;;14.57;2.97;;;;;;;;;;4970379;28;20058;-85
2021/12/19 00:34:29;;;;;;;12.45;3.33;;;;;;;;;;4960692;28;20078;-84
2021/12/19 00:36:56;;;;;;;10.32;3.65;;;;;;;;;;4969813;28;20138;-85
2021/12/19 00:39:30;;;;;;;8.73;3.22;;;;;;;;;;4971969;28;20078;-85
2021/12/19 00:41:57;;;;;;;7.93;2.97;;;;;;;;;;4976226;28;20137;-84
2021/12/19 00:44:25;;;;;;;12.63;2.70;;;;;;;;;;4973858;28;20100;-85
2021/12/19 00:47:04;;;;;;;9.60;2.88;;;;;;;;;;4971986;28;20493;-85
2021/12/19 00:49:31;;;;;;;6.38;2.20;;;;;;;;;;4959819;28;20067;-84
2021/12/19 00:51:58;;;;;;;8.52;2.50;;;;;;;;;;4972233;28;20089;-84
2021/12/19 00:54:26;;;;;;;14.75;2.90;;;;;;;;;;4979590;28;20050;-84
2021/12/19 00:56:53;;;;;;;11.85;2.50;;;;;;;;;;4986340;28;20130;-85
2021/12/19 00:59:20;;;;;;;7.15;2.35;;;;;;;;;;4978041;28;20051;-85
2021/12/19 01:01:48;;;;;;;10.30;2.53;;;;;;;;;;4975864;28;20066;-84
2021/12/19 01:04:16;;;;;;;7.80;2.08;;;;;;;;;;4972273;28;20528;-84
2021/12/19 01:06:44;;;;;;;8.98;1.90;;;;;;;;;;4976513;28;20501;-84
2021/12/19 01:09:11;;;;;;;7.68;2.15;;;;;;;;;;4976105;28;20055;-83
2021/12/19 01:11:39;;;;;;;5.72;2.15;;;;;;;;;;4965063;28;20126;-84
2021/12/19 01:14:06;;;;;;;2.65;1.92;;;;;;;;;;4975419;28;20047;-83
2021/12/19 01:16:34;;;;;;;5.38;2.03;;;;;;;;;;4970958;28;20050;-84
2021/12/19 01:19:01;;;;;;;5.57;1.73;;;;;;;;;;4976611;28;20046;-84
2021/12/19 01:21:28;;;;;;;3.00;1.70;;;;;;;;;;4975351;28;20086;-83
2021/12/19 01:23:55;;;;;;;7.25;2.00;;;;;;;;;;4975323;28;20113;-83
2021/12/19 01:26:23;;;;;;;9.02;2.28;;;;;;;;;;4960926;28;20772;-84
2021/12/19 01:28:50;;;;;;;8.20;3.13;;;;;;;;;;4974233;28;20089;-83
2021/12/19 01:31:17;;;;;;;7.13;2.72;;;;;;;;;;4973900;28;20563;-84
2021/12/19 01:33:44;;;;;;;5.60;2.70;;;;;;;;;;4975916;28;20082;-84
2021/12/19 01:36:12;;;;;;;6.45;2.80;;;;;;;;;;4971363;28;20097;-85
2021/12/19 01:38:40;;;;;;;9.82;2.88;;;;;;;;;;4975121;28;20462;-85
2021/12/19 01:41:07;;;;;;;10.48;2.80;;;;;;;;;;4976484;28;20686;-84
2021/12/19 01:43:34;;;;;;;6.97;2.90;;;;;;;;;;4971249;28;20551;-84
2021/12/19 01:46:01;;;;;;;7.40;2.97;;;;;;;;;;4973867;28;20149;-84
2021/12/19 01:48:32;;;;;;;6.90;2.50;;;;;;;;;;4973287;28;20468;-85
2021/12/19 01:50:59;;;;;;;11.18;3.60;;;;;;;;;;4967233;28;20078;-84
2021/12/19 01:53:28;;;;;;;8.68;2.75;;;;;;;;;;4975768;28;20094;-84
2021/12/19 01:55:55;;;;;;;15.70;3.55;;;;;;;;;;4979641;28;20571;-85
2021/12/19 01:58:23;;;;;;;9.98;3.25;;;;;;;;;;4975053;28;20444;-84
2021/12/19 02:00:55;;;;;;;12.98;3.55;;;;;;;;;;4969380;28;20463;-85
2021/12/19 02:03:23;;;;;;;9.90;3.30;;;;;;;;;;4974052;28;20043;-83
2021/12/19 02:05:51;;;;;;;11.20;3.10;;;;;;;;;;4970044;28;20070;-84
2021/12/19 02:08:18;;;;;;;9.98;3.28;;;;;;;;;;4975281;28;20149;-85
2021/12/19 02:10:45;;;;;;;13.25;3.22;;;;;;;;;;4975923;28;20051;-84
2021/12/19 02:13:14;;;;;;;16.85;3.63;;;;;;;;;;4966169;28;20134;-84
2021/12/19 02:15:42;;;;;;;13.13;3.25;;;;;;;;;;4968245;28;20154;-84
2021/12/19 02:18:11;;;;;;;11.68;3.15;;;;;;;;;;4973150;28;20179;-84
2021/12/19 02:20:43;;;;;;;10.95;3.10;;;;;;;;;;4982950;28;20070;-84
2021/12/19 02:23:11;;;;;;;13.65;3.08;;;;;;;;;;4973316;28;20070;-84
2021/12/19 02:25:39;;;;;;;12.93;3.53;;;;;;;;;;4981976;28;20075;-83
2021/12/19 02:28:06;;;;;;;22.30;3.55;;;;;;;;;;4973610;28;20081;-84
2021/12/19 02:30:34;;;;;;;16.48;4.20;;;;;;;;;;4972682;28;20126;-85
2021/12/19 02:33:01;;;;;;;14.77;3.45;;;;;;;;;;4973188;28;20078;-86
2021/12/19 02:35:32;;;;;;;11.15;3.42;;;;;;;;;;4976093;28;20058;-86
2021/12/19 02:48:39;;;;;;;12.52;3.53;;;;;;;;;;4972296;28;20082;-86
2021/12/19 02:51:07;;;;;;;17.67;3.05;;;;;;;;;;4971915;28;20047;-84
2021/12/19 02:53:35;;;;;;;10.60;3.17;;;;;;;;;;4955209;29;20090;-86
2021/12/19 02:56:04;;;;;;;12.23;2.50;;;;;;;;;;4971109;28;20047;-84
2021/12/19 02:58:31;;;;;;;9.82;2.28;;;;;;;;;;4969994;28;20564;-83
2021/12/19 03:01:00;;;;;;;5.32;1.40;;;;;;;;;;4970600;28;20082;-83
2021/12/19 03:03:27;;;;;;;6.22;1.55;;;;;;;;;;4973949;28;20086;-84
2021/12/19 03:05:54;;;;;;;5.22;1.23;;;;;;;;;;4974622;28;20113;-84
2021/12/19 03:08:21;;;;;;;6.45;1.52;;;;;;;;;;4972695;28;20197;-83
2021/12/19 03:18:43;;;;;;;6.88;1.20;;;;;;;;;;4983512;28;20122;-83
2021/12/19 03:21:13;;;;;;;14.70;1.65;;;;;;;;;;4973724;28;20061;-83
2021/12/19 03:23:42;;;;;;;14.65;1.65;;;;;;;;;;4967015;28;20150;-83
2021/12/19 03:26:09;;;;;;;9.25;1.45;;;;;;;;;;4971254;28;20142;-83
2021/12/19 03:28:36;;;;;;;9.93;1.42;;;;;;;;;;4975894;28;20089;-83
2021/12/19 03:31:04;;;;;;;5.28;1.48;;;;;;;;;;4987439;28;20070;-82
2021/12/19 03:33:31;;;;;;;15.82;1.85;;;;;;;;;;4972312;28;20161;-85
2021/12/19 03:35:58;;;;;;;5.47;1.30;;;;;;;;;;4964304;28;20055;-84
2021/12/19 03:38:26;;;;;;;7.85;1.60;;;;;;;;;;4972159;28;20090;-84
2021/12/19 03:41:09;;;;;;;8.35;1.75;;;;;;;;;;4974554;28;20101;-85
2021/12/19 03:43:36;;;;;;;8.90;1.55;;;;;;;;;;4962234;28;20469;-85
2021/12/19 03:46:04;;;;;;;6.63;1.60;;;;;;;;;;4978322;28;20043;-85
2021/12/19 03:48:31;;;;;;;6.07;1.40;;;;;;;;;;4971941;28;20126;-84
2021/12/19 03:50:58;;;;;;;4.90;1.63;;;;;;;;;;4971730;28;20161;-85
2021/12/19 03:53:26;;;;;;;6.88;1.85;;;;;;;;;;4967878;28;20108;-85
2021/12/19 03:55:53;;;;;;;8.15;1.90;;;;;;;;;;4971357;28;20106;-84
2021/12/19 03:58:21;;;;;;;8.38;3.08;;;;;;;;;;4952353;29;20554;-83
2021/12/19 04:00:51;;;;;;;14.18;2.10;;;;;;;;;;4973488;28;20078;-83
2021/12/19 04:03:20;;;;;;;10.30;2.95;;;;;;;;;;4982348;28;20085;-84
2021/12/19 04:05:51;;;;;;;12.45;2.10;;;;;;;;;;4971759;28;20081;-79
2021/12/19 04:08:19;;;;;;;10.95;1.92;;;;;;;;;;4969207;28;20162;-79
2021/12/19 04:10:47;;;;;;;12.27;2.35;;;;;;;;;;4979484;28;20070;-80
2021/12/19 04:13:15;;;;;;;13.52;1.80;;;;;;;;;;4966212;28;20082;-80
2021/12/19 04:15:42;;;;;;;18.40;2.50;;;;;;;;;;4974429;28;20205;-79
2021/12/19 04:18:09;;;;;;;8.65;1.90;;;;;;;;;;4968814;28;20081;-79
2021/12/19 04:20:37;;;;;;;12.15;1.85;;;;;;;;;;4969941;28;20086;-79
2021/12/19 04:23:04;;;;;;;13.35;1.95;;;;;;;;;;4969903;28;22029;-79
2021/12/19 04:25:32;;;;;;;9.15;1.98;;;;;;;;;;4968543;28;20162;-79
2021/12/19 04:27:59;;;;;;;9.65;2.45;;;;;;;;;;4971298;28;20401;-79
2021/12/19 04:30:26;;;;;;;7.50;1.75;;;;;;;;;;4969650;28;20126;-79
2021/12/19 04:33:01;;;;;;;10.75;1.80;;;;;;;;;;4967017;28;20057;-80
2021/12/19 04:35:31;;;;;;;9.80;2.33;;;;;;;;;;4979260;28;20056;-81
2021/12/19 04:55:37;;;;;;;16.95;1.80;;;;;;;;;;4981008;28;20101;-82
2021/12/19 05:00:40;;;;;;;13.63;1.88;;;;;;;;;;4970678;28;20485;-80
2021/12/19 05:03:25;;;;;;;5.43;1.17;;;;;;;;;;4968976;28;20133;-81
2021/12/19 05:14:15;;;;;;;;;;;;;;;;;;4968190;28;20051;-81
2021/12/19 05:16:45;;;;;;;10.13;1.65;;;;;;;;;;4965316;28;20020;-81
2021/12/19 05:19:29;;;;;;;15.02;1.98;;;;;;;;;;4968238;28;20145;-79
2021/12/19 05:22:01;;;;;;;13.82;1.98;;;;;;;;;;4969562;28;20089;-80
2021/12/19 05:27:05;;;;;;;14.82;1.98;;;;;;;;;;4974209;28;20048;-80
2021/12/19 05:29:32;;;;;;;10.55;2.00;;;;;;;;;;4970079;28;20051;-80
2021/12/19 05:32:00;;;;;;;16.27;2.08;;;;;;;;;;4970104;28;20136;-80
2021/12/19 05:34:29;;;;;;;5.70;1.73;;;;;;;;;;4968018;28;20086;-81
2021/12/19 05:45:14;;;;;;;15.93;2.53;;;;;;;;;;4980336;28;20082;-80
2021/12/19 05:47:43;;;;;;;9.48;2.00;;;;;;;;;;4956743;28;20131;-80
2021/12/19 05:50:10;;;;;;;12.15;1.70;;;;;;;;;;4979304;28;20463;-80
2021/12/19 05:52:38;;;;;;;12.60;1.88;;;;;;;;;;4979409;28;20575;-79
2021/12/19 05:55:05;;;;;;;13.10;1.92;;;;;;;;;;4974347;28;20129;-78
2021/12/19 05:57:32;;;;;;;9.75;2.28;;;;;;;;;;4979741;28;20047;-79
2021/12/19 06:00:00;;;;;;;15.85;2.30;;;;;;;;;;4975175;28;20133;-79
2021/12/19 06:02:27;;;;;;;13.80;2.10;;;;;;;;;;4973244;28;20078;-80
2021/12/19 06:04:54;;;;;;;16.83;2.67;;;;;;;;;;4977274;28;20047;-79
2021/12/19 06:07:22;;;;;;;9.40;1.67;;;;;;;;;;4971506;28;20047;-79
2021/12/19 06:09:49;;;;;;;19.88;1.90;;;;;;;;;;4970999;28;20078;-79
2021/12/19 06:12:17;;;;;;;11.32;2.55;;;;;;;;;;4982162;28;20126;-79
2021/12/19 06:14:44;;;;;;;8.30;1.35;;;;;;;;;;4970355;28;20134;-80
2021/12/19 06:17:11;;;;;;;19.10;2.72;;;;;;;;;;4967980;28;20540;-79
2021/12/19 06:19:39;;;;;;;13.30;2.13;;;;;;;;;;4976268;28;20579;-79
2021/12/19 06:22:07;;;;;;;10.73;1.77;;;;;;;;;;4972607;28;20453;-79
2021/12/19 06:24:35;;;;;;;16.15;1.80;;;;;;;;;;4971492;28;20074;-79
2021/12/19 06:27:02;;;;;;;6.97;1.83;;;;;;;;;;4955419;28;20042;-79
2021/12/19 06:29:31;;;;;;;14.13;2.33;;;;;;;;;;4971050;28;20074;-79
2021/12/19 06:31:59;;;;;;;7.03;1.58;;;;;;;;;;4971594;28;20129;-79
2021/12/19 06:34:27;;;;;;;12.73;1.90;;;;;;;;;;4970446;28;20881;-80
2021/12/19 06:36:54;;;;;;;11.27;1.80;;;;;;;;;;4969117;28;20058;-79
2021/12/19 06:39:22;;;;;;;17.65;2.00;;;;;;;;;;4978334;28;20133;-79
2021/12/19 06:41:50;;;;;;;11.82;1.88;;;;;;;;;;4976103;28;20078;-79
2021/12/19 06:44:17;;;;;;;19.42;2.33;;;;;;;;;;4976852;28;20847;-78
2021/12/19 06:46:45;;;;;;;10.45;1.42;;;;;;;;;;4973949;28;20085;-83
2021/12/19 06:49:12;;;;;;;13.45;2.53;;;;;;;;;;4971438;28;20125;-82
2021/12/19 06:51:39;;;;;;;12.07;1.73;;;;;;;;;;4970150;28;20133;-82
2021/12/19 06:54:06;;;;;;;11.98;1.80;;;;;;;;;;4978427;28;20216;-82
2021/12/19 06:56:34;;;;;;;12.27;2.15;;;;;;;;;;4978937;28;20157;-81
2021/12/19 06:59:03;;;;;;;16.15;2.22;;;;;;;;;;4971201;28;20097;-82
2021/12/19 07:01:31;;;;;;;13.45;2.00;;;;;;;;;;4958479;28;20051;-82
2021/12/19 07:03:58;;;;;;;20.95;2.05;;;;;;;;;;4977919;28;20085;-82
2021/12/19 07:06:26;;;;;;;17.23;2.97;;;;;;;;;;4975939;28;20070;-82
2021/12/19 07:08:53;;;;;;;15.93;1.65;;;;;;;;;;4972011;28;20066;-82
2021/12/19 07:11:21;;;;;;;9.50;2.10;;;;;;;;;;4970160;28;20125;-82
2021/12/19 07:13:48;;;;;;;14.30;2.15;;;;;;;;;;4982421;28;20494;-82
2021/12/19 07:16:21;;;;;;;19.45;2.40;;;;;;;;;;4980316;28;20118;-83
2021/12/19 07:18:48;;;;;;;17.13;2.13;;;;;;;;;;4967188;28;20078;-82
2021/12/19 07:21:15;;;;;;;18.67;1.98;;;;;;;;;;4989339;28;20133;-82
2021/12/19 07:23:43;;;;;;;14.27;1.52;;;;;;;;;;4975393;28;20046;-82
2021/12/19 07:26:19;;;;;;;14.35;2.45;;;;;;;;;;4971036;28;20048;-82
2021/12/19 07:28:48;;;;;;;12.65;2.10;;;;;;;;;;4972196;28;20779;-82
2021/12/19 07:31:19;;;;;;;26.40;2.60;;;;;;;;;;4972982;28;20130;-82
2021/12/19 07:33:46;;;;;;;13.40;2.17;;;;;;;;;;4971615;28;20411;-82
2021/12/19 07:36:14;;;;;;;13.20;1.70;;;;;;;;;;4969150;28;20705;-82
2021/12/19 07:38:53;;;;;;;20.38;1.90;;;;;;;;;;4981166;28;20170;-82
2021/12/19 07:41:20;;;;;;;11.60;2.03;;;;;;;;;;4971232;28;20047;-82
2021/12/19 07:43:47;;;;;;;10.07;1.48;;;;;;;;;;4979600;28;20082;-82
2021/12/19 07:46:14;;;;;;;15.88;2.05;;;;;;;;;;4967220;28;20039;-83
2021/12/19 07:48:42;;;;;;;16.50;1.90;;;;;;;;;;4971735;28;20118;-82
2021/12/19 07:51:09;;;;;;;16.40;2.40;;;;;;;;;;4972402;28;20046;-82
2021/12/19 07:53:37;;;;;;;14.98;2.05;;;;;;;;;;4989071;28;20129;-82
2021/12/19 07:56:05;;;;;;;19.90;3.08;;;;;;;;;;4969322;28;20051;-82
2021/12/19 07:58:32;;;;;;;19.95;2.03;;;;;;;;;;4971856;28;20054;-83
2021/12/19 08:01:01;;;;;;;9.52;2.20;;;;;;;;;;4960680;28;20089;-84
2021/12/19 08:03:29;;;;;;;16.23;1.85;;;;;;;;;;4972946;28;20142;-84
2021/12/19 08:06:00;;;;;;;12.27;2.53;;;;;;;;;;4975438;28;20054;-86
2021/12/19 08:08:31;;;;;;;14.63;2.00;;;;;;;;;;4981281;28;20117;-87
2021/12/19 08:13:45;;;;;;;11.73;2.20;;;;;;;;;;4992118;28;20112;-85
2021/12/19 08:16:12;;;;;;;17.38;2.40;;;;;;;;;;4980225;28;20085;-84
2021/12/19 08:18:39;;;;;;;14.90;2.03;;;;;;;;;;4983931;28;20455;-85
2021/12/19 08:21:07;;;;;;;9.63;2.08;;;;;;;;;;4977526;28;20074;-85
2021/12/19 08:23:36;;;;;;;21.52;2.38;;;;;;;;;;4987160;28;20074;-85
2021/12/19 08:26:03;;;;;;;20.48;3.17;;;;;;;;;;4998677;22;20073;-84
2021/12/19 08:28:30;;;;;;;17.35;1.58;;;;;;;;;;5007099;28;20533;-84
2021/12/19 08:30:57;;;;;;;18.23;2.30;;;;;;;;;;4982558;28;20676;-83
2021/12/19 08:33:26;;;;;;;22.35;2.92;;;;;;;;;;4991838;28;20078;-85
2021/12/19 08:35:53;;;;;;;16.20;2.72;;;;;;;;;;4990392;28;20057;-85
2021/12/19 08:38:20;;;;;;;20.48;2.50;;;;;;;;;;4988061;28;20055;-84
2021/12/19 08:40:49;;;;;;;14.38;3.13;;;;;;;;;;4990657;28;20128;-84
2021/12/19 08:43:16;;;;;;;14.50;2.97;;;;;;;;;;4990156;28;20088;-84
2021/12/19 08:45:46;;;;;;;20.45;2.22;;;;;;;;;;4988551;28;20141;-82
2021/12/19 08:48:18;;;;;;;22.80;2.83;;;;;;;;;;5003796;28;20141;-86
2021/12/19 08:50:46;;;;;;;14.75;2.08;;;;;;;;;;4989694;28;20129;-85
2021/12/19 08:53:13;;;;;;;11.65;1.92;;;;;;;;;;5008281;28;20112;-82
2021/12/19 08:55:40;;;;;;;21.40;2.50;;;;;;;;;;4990633;28;20081;-83
2021/12/19 08:58:07;;;;;;;17.02;2.25;;;;;;;;;;4992376;28;20073;-81
2021/12/19 09:00:35;;;;;;;13.05;1.92;;;;;;;;;;4991779;28;20073;-81
2021/12/19 09:03:02;;;;;;;15.02;2.88;;;;;;;;;;4990890;28;20595;-88
2021/12/19 09:05:31;;;;;;;26.15;3.83;;;;;;;;;;5017621;28;20132;-83
2021/12/19 09:07:58;;;;;;;22.08;2.47;;;;;;;;;;5006181;28;20455;-81
2021/12/19 09:10:25;;;;;;;18.17;2.40;;;;;;;;;;4988675;28;20085;-84
2021/12/19 09:12:53;;;;;;;15.25;4.25;;;;;;;;;;4989891;28;20050;-81
2021/12/19 09:15:20;;;;;;;13.38;2.15;;;;;;;;;;5006972;28;20085;-81
2021/12/19 09:17:48;;;;;;;24.63;2.33;;;;;;;;;;4989538;28;20100;-81
2021/12/19 09:20:15;;;;;;;17.00;2.80;;;;;;;;;;4993774;28;20065;-82
2021/12/19 09:22:42;;;;;;;19.13;2.95;;;;;;;;;;4992357;28;20468;-82
2021/12/19 09:25:16;;;;;;;15.95;3.05;;;;;;;;;;5006684;28;20081;-82
2021/12/19 09:27:44;;;;;;;19.63;3.30;;;;;;;;;;4990492;28;20137;-82
2021/12/19 09:30:11;;;;;;;13.77;2.78;;;;;;;;;;4990821;28;20129;-83
2021/12/19 09:32:40;;;;;;;27.75;3.75;;;;;;;;;;4995086;28;20130;-84
2021/12/19 09:35:14;;;;;;;25.98;2.33;;;;;;;;;;5009971;28;20077;-86
2021/12/19 09:37:42;;;;;;;16.77;3.47;;;;;;;;;;4993126;28;20480;-82
2021/12/19 09:40:12;;;;;;;12.90;2.40;;;;;;;;;;4986362;28;20097;-84
2021/12/19 09:42:47;;;;;;;21.75;2.67;;;;;;;;;;5005113;28;20132;-85
2021/12/19 09:45:14;;;;;;;14.32;2.85;;;;;;;;;;4979283;28;20130;-86
2021/12/19 09:47:44;;;;;;;19.83;2.40;;;;;;;;;;4981443;28;20121;-82
2021/12/19 09:50:11;;;;;;;23.52;2.60;;;;;;;;;;4989762;28;20084;-81
2021/12/19 09:52:38;;;;;;;19.45;2.92;;;;;;;;;;4993066;28;20073;-81
2021/12/19 09:55:06;;;;;;;23.60;3.03;;;;;;;;;;4992118;28;20061;-81
2021/12/19 09:57:33;;;;;;;20.08;3.03;;;;;;;;;;4989348;28;20101;-81
2021/12/19 10:00:00;;;;;;;15.63;2.03;;;;;;;;;;4989244;28;20481;-81
2021/12/19 10:02:28;;;;;;;13.45;2.65;;;;;;;;;;4992089;28;20554;-81
2021/12/19 10:04:55;;;;;;;13.32;2.05;;;;;;;;;;4986786;28;20134;-81
2021/12/19 10:07:27;;;;;;;17.60;2.78;;;;;;;;;;4990658;28;20046;-81
2021/12/19 10:10:03;;;;;;;12.98;2.50;;;;;;;;;;5009517;28;20474;-81
2021/12/19 10:14:59;;;;;;;20.13;5.10;;;;;;;;;;4994686;28;20476;-81
2021/12/19 10:17:26;;;;;;;11.00;2.40;;;;;;;;;;4994171;28;20137;-81
2021/12/19 10:19:54;;;;;;;20.10;2.95;;;;;;;;;;4993378;28;20088;-81
2021/12/19 10:22:31;;;;;;;18.88;2.35;;;;;;;;;;5009409;28;20081;-81
2021/12/19 10:25:07;;;;;;;24.50;2.53;;;;;;;;;;4987635;28;20097;-81
2021/12/19 10:27:37;;;;;;;12.32;2.30;;;;;;;;;;4994059;28;20081;-81
2021/12/19 10:30:10;;;;;;;14.20;2.05;;;;;;;;;;5008871;28;20538;-81
2021/12/19 10:32:37;;;;;;;12.43;2.63;;;;;;;;;;4992897;28;20054;-81
2021/12/19 10:35:15;;;;;;;25.30;3.63;;;;;;;;;;4993917;28;20054;-81
2021/12/19 10:37:43;;;;;;;17.50;4.28;;;;;;;;;;4992957;28;20081;-81
2021/12/19 10:40:10;;;;;;;28.88;2.17;;;;;;;;;;4993567;28;20504;-81
2021/12/19 10:42:44;;;;;;;19.02;1.98;;;;;;;;;;4993099;28;20481;-81
2021/12/19 10:45:30;;;;;;;13.80;2.03;;;;;;;;;;5008620;28;20153;-81
2021/12/19 10:48:16;;;;;;;22.65;2.45;;;;;;;;;;4992240;28;20108;-82
2021/12/19 10:50:43;;;;;;;22.38;2.10;;;;;;;;;;4990705;28;20129;-81
2021/12/19 10:53:10;;;;;;;31.33;3.03;;;;;;;;;;4989451;28;20050;-81
2021/12/19 10:55:40;;;;;;;27.90;4.93;;;;;;;;;;4990195;28;20093;-81
2021/12/19 10:58:26;;;;;;;17.52;2.45;;;;;;;;;;4986400;28;20165;-82
2021/12/19 11:00:56;;;;;;;13.70;2.35;;;;;;;;;;5006450;28;20082;-82
2021/12/19 11:03:47;;;;;;;22.05;2.03;;;;;;;;;;4987590;28;20510;-82
2021/12/19 11:06:15;;;;;;;15.07;2.45;;;;;;;;;;4970433;28;20407;-82
2021/12/19 11:08:47;;;;;;;12.80;2.28;;;;;;;;;;4989517;28;20774;-82
2021/12/19 11:11:29;;;;;;;15.68;2.78;;;;;;;;;;4981464;28;20078;-82
2021/12/19 11:13:57;;;;;;;16.27;2.55;;;;;;;;;;4989882;28;20097;-82
2021/12/19 11:16:24;;;;;;;16.58;2.92;;;;;;;;;;4987271;28;20093;-82
2021/12/19 11:18:51;;;;;;;21.88;4.18;;;;;;;;;;4984084;28;20081;-82
2021/12/19 11:21:19;;;;;;;18.00;3.05;;;;;;;;;;4996543;28;20050;-83
2021/12/19 11:23:46;;;;;;;21.90;3.05;;;;;;;;;;4993659;28;20103;-83
2021/12/19 11:26:14;;;;;;;19.23;2.67;;;;;;;;;;4989990;28;20454;-81
2021/12/19 11:28:42;;;;;;;15.40;2.60;;;;;;;;;;4986186;28;20046;-84
2021/12/19 11:31:09;;;;;;;14.50;3.97;;;;;;;;;;4984810;28;20061;-84
2021/12/19 11:33:40;;;;;;;13.18;2.08;;;;;;;;;;4986116;28;20760;-85
2021/12/19 11:36:08;;;;;;;10.25;2.10;;;;;;;;;;4986911;28;20391;-84
2021/12/19 11:38:36;;;;;;;25.25;3.05;;;;;;;;;;4989510;28;20504;-87
2021/12/19 11:41:08;;;;;;;15.18;2.55;;;;;;;;;;4984982;28;20789;-91
2021/12/19 11:43:37;;;;;;;23.45;2.30;;;;;;;;;;5001899;28;20161;-85
2021/12/19 11:46:12;;;;;;;21.52;3.95;;;;;;;;;;4991292;28;20096;-89
2021/12/19 11:48:39;;;;;;;;;;;;;;;;;;4990014;28;20073;-86
2021/12/19 11:51:08;;;;;;;20.10;3.00;;;;;;;;;;5007791;28;19961;-86
2021/12/19 11:53:39;;;;;;;26.40;3.15;;;;;;;;;;4990264;28;20049;-84
2021/12/19 11:56:11;;;;;;;17.85;2.33;;;;;;;;;;4988382;28;20066;-86
2021/12/19 11:58:45;;;;;;;18.70;3.08;;;;;;;;;;4985836;28;20835;-86
2021/12/19 12:01:14;;;;;;;21.35;2.10;;;;;;;;;;4988584;28;20065;-87
2021/12/19 12:03:44;;;;;;;22.55;2.92;;;;;;;;;;5006524;28;20389;-82
2021/12/19 12:06:32;;;;;;;21.85;2.25;;;;;;;;;;4995348;28;20818;-85
2021/12/19 12:09:12;;;;;;;24.80;3.08;;;;;;;;;;4992073;28;20046;-83
2021/12/19 12:12:03;;;;;;;19.15;2.53;;;;;;;;;;4989641;28;20564;-85
2021/12/19 12:14:35;;;;;;;21.88;3.03;;;;;;;;;;5011295;28;20081;-85
2021/12/19 12:17:07;;;;;;;23.65;3.13;;;;;;;;;;4990306;28;20054;-81
2021/12/19 12:19:55;;;;;;;21.75;3.25;;;;;;;;;;4992699;28;20137;-82
2021/12/19 12:22:37;;;;;;;15.02;3.63;;;;;;;;;;4991021;28;20082;-82
2021/12/19 12:25:04;;;;;;;17.52;3.50;;;;;;;;;;4988798;28;20055;-83
2021/12/19 12:27:55;;;;;;;14.48;2.60;;;;;;;;;;4990094;28;20859;-83
2021/12/19 12:30:28;;;;;;;15.88;1.77;;;;;;;;;;4987010;28;20121;-82
2021/12/19 12:32:57;;;;;;;24.17;3.33;;;;;;;;;;5006268;28;20125;-82
2021/12/19 12:35:28;;;;;;;12.27;2.13;;;;;;;;;;5001129;28;20794;-85
2021/12/19 12:37:55;;;;;;;22.98;3.03;;;;;;;;;;4990858;28;20108;-83
2021/12/19 12:43:02;;;;;;;16.17;2.85;;;;;;;;;;4991603;28;20845;-83
2021/12/19 12:45:30;;;;;;;19.83;2.70;;;;;;;;;;4993782;28;20082;-83
2021/12/19 12:48:01;;;;;;;26.38;3.58;;;;;;;;;;5006628;28;20125;-82
2021/12/19 12:50:28;;;;;;;21.55;3.65;;;;;;;;;;5006689;28;20046;-84
2021/12/19 12:52:58;;;;;;;18.45;2.45;;;;;;;;;;5006991;28;20074;-82
2021/12/19 12:55:29;;;;;;;11.30;2.10;;;;;;;;;;4990000;28;20538;-82
2021/12/19 12:57:56;;;;;;;20.90;2.72;;;;;;;;;;5002275;28;20073;-82
2021/12/19 13:00:26;;;;;;;25.27;3.58;;;;;;;;;;5005253;28;20141;-80
2021/12/19 13:03:10;;;;;;;18.05;2.10;;;;;;;;;;5014776;28;20507;-80
2021/12/19 13:05:38;;;;;;;18.70;2.40;;;;;;;;;;4990345;28;20527;-80
2021/12/19 13:08:05;;;;;;;22.60;2.00;;;;;;;;;;5006298;28;20133;-79
2021/12/19 13:10:32;;;;;;;28.17;4.18;;;;;;;;;;4989638;28;20054;-77
2021/12/19 13:13:09;;;;;;;22.30;4.28;;;;;;;;;;4989854;28;20138;-82
2021/12/19 13:15:37;;;;;;;22.65;2.50;;;;;;;;;;4991026;28;20151;-80
2021/12/19 13:18:04;;;;;;;28.30;3.15;;;;;;;;;;5005324;28;20054;-79
2021/12/19 13:20:36;;;;;;;17.13;3.10;;;;;;;;;;5006018;28;20466;-80
2021/12/19 13:23:03;;;;;;;13.57;2.28;;;;;;;;;;4990619;28;20133;-81
2021/12/19 13:25:38;;;;;;;24.50;2.30;;;;;;;;;;5005952;28;20054;-82
2021/12/19 13:28:07;;;;;;;25.73;2.75;;;;;;;;;;4989128;28;20117;-83
2021/12/19 13:30:36;;;;;;;18.17;2.80;;;;;;;;;;4989491;28;20081;-82
2021/12/19 13:33:13;;;;;;;13.90;3.35;;;;;;;;;;4992652;28;20145;-83
2021/12/19 13:35:46;;;;;;;31.70;3.47;;;;;;;;;;5006992;28;20470;-84
2021/12/19 13:38:16;;;;;;;18.33;3.15;;;;;;;;;;4991375;28;20526;-82
2021/12/19 13:40:43;;;;;;;17.05;2.75;;;;;;;;;;4988758;28;20085;-80
2021/12/19 13:43:16;;;;;;;22.33;2.53;;;;;;;;;;4988199;28;20129;-80
2021/12/19 13:45:48;;;;;;;14.95;2.33;;;;;;;;;;5003469;28;20085;-80
2021/12/19 13:48:15;;;;;;;23.48;3.60;;;;;;;;;;4988462;28;20047;-80
2021/12/19 13:50:44;;;;;;;15.55;2.50;;;;;;;;;;5002824;28;20480;-80
2021/12/19 13:53:12;;;;;;;20.10;2.80;;;;;;;;;;5002694;28;20137;-80
2021/12/19 13:55:41;;;;;;;25.23;2.95;;;;;;;;;;4994456;28;20078;-80
2021/12/19 13:58:09;;;;;;;27.02;3.08;;;;;;;;;;4988707;28;20074;-80
2021/12/19 14:00:38;;;;;;;23.52;3.00;;;;;;;;;;4987685;28;20082;-81
2021/12/19 14:03:05;;;;;;;24.55;3.10;;;;;;;;;;4988332;28;20675;-81
2021/12/19 14:05:53;;;;;;;17.95;2.83;;;;;;;;;;4992964;28;20061;-81
2021/12/19 14:08:22;;;;;;;20.00;2.60;;;;;;;;;;4992513;28;20056;-81
2021/12/19 14:10:59;;;;;;;19.35;2.33;;;;;;;;;;4990214;28;20579;-79
2021/12/19 14:13:32;;;;;;;26.60;5.38;;;;;;;;;;4991577;28;20078;-81
2021/12/19 14:15:59;;;;;;;30.83;4.85;;;;;;;;;;4994034;28;20103;-81
2021/12/19 14:18:28;;;;;;;24.98;5.75;;;;;;;;;;5002103;28;20089;-82
2021/12/19 14:20:55;;;;;;;24.85;6.97;;;;;;;;;;4993378;28;20142;-80
2021/12/19 14:23:23;;;;;;;36.15;10.93;;;;;;;;;;4991603;28;20572;-80
2021/12/19 14:25:51;;;;;;;30.70;10.93;;;;;;;;;;4992762;28;20503;-80
2021/12/19 14:28:22;;;;;;;27.83;7.32;;;;;;;;;;5005669;28;20129;-80
2021/12/19 14:31:16;;;;;;;25.58;5.93;;;;;;;;;;4989489;28;20065;-80
2021/12/19 14:33:43;;;;;;;33.28;6.15;;;;;;;;;;4974645;28;20129;-80
2021/12/19 14:36:10;;;;;;;34.17;5.38;;;;;;;;;;4993255;28;20458;-82
2021/12/19 14:38:38;;;;;;;35.65;6.43;;;;;;;;;;4994436;28;20064;-80
2021/12/19 14:41:07;;;;;;;35.83;7.65;;;;;;;;;;4991211;28;20101;-81
2021/12/19 14:43:36;;;;;;;32.38;7.95;;;;;;;;;;5007265;28;20093;-80
2021/12/19 14:46:04;;;;;;;33.83;9.25;;;;;;;;;;4993670;28;20130;-80
2021/12/19 14:48:31;;;;;;;28.83;5.55;;;;;;;;;;5007360;28;20051;-79
2021/12/19 14:51:01;;;;;;;33.10;7.40;;;;;;;;;;4995031;28;20093;-81
2021/12/19 14:53:30;;;;;;;26.75;5.95;;;;;;;;;;4993441;28;20089;-80
2021/12/19 14:55:58;;;;;;;28.08;6.35;;;;;;;;;;4979628;28;20070;-81
2021/12/19 14:58:28;;;;;;;35.92;9.40;;;;;;;;;;4994156;28;20110;-83
2021/12/19 15:01:02;;;;;;;28.33;4.95;;;;;;;;;;5008336;28;20133;-85
2021/12/19 15:03:30;;;;;;;27.38;6.43;;;;;;;;;;5008537;28;20447;-83
2021/12/19 15:06:00;;;;;;;49.67;9.82;;;;;;;;;;4991962;28;20554;-81
2021/12/19 15:08:28;;;;;;;37.28;11.48;;;;;;;;;;5008188;28;20051;-81
2021/12/19 15:10:59;;;;;;;22.83;5.57;;;;;;;;;;4992865;28;20073;-80
2021/12/19 15:13:28;;;;;;;19.88;6.15;;;;;;;;;;4993709;28;20400;-83
2021/12/19 15:15:55;;;;;;;23.80;7.85;;;;;;;;;;4993948;28;20494;-84
2021/12/19 15:18:23;;;;;;;21.35;4.68;;;;;;;;;;4993667;28;20092;-87
2021/12/19 15:20:53;;;;;;;54.10;16.00;;;;;;;;;;5008297;28;20092;-83
2021/12/19 15:25:49;;;;;;;37.08;8.05;;;;;;;;;;4970312;28;20051;-83
2021/12/19 15:28:22;;;;;;;19.80;6.50;;;;;;;;;;4984799;28;20104;-83
2021/12/19 15:34:16;;;;;;;48.20;12.55;;;;;;;;;;4995787;23;20081;-85
2021/12/19 15:36:44;;;;;;;32.33;7.70;;;;;;;;;;4976250;28;20089;-85
2021/12/19 15:39:11;;;;;;;34.88;8.60;;;;;;;;;;4992287;28;20053;-84
2021/12/19 15:41:38;;;;;;;30.00;7.40;;;;;;;;;;4976739;28;20062;-85
2021/12/19 15:44:09;;;;;;;27.67;5.72;;;;;;;;;;4987564;28;20172;-84
2021/12/19 15:46:42;;;;;;;30.15;6.45;;;;;;;;;;4992219;28;20133;-83
2021/12/19 15:49:10;;;;;;;26.25;5.78;;;;;;;;;;4970662;28;20062;-81
2021/12/19 15:51:37;;;;;;;23.65;3.95;;;;;;;;;;4985647;28;20054;-78
2021/12/19 15:54:04;;;;;;;29.35;7.40;;;;;;;;;;4986542;28;20082;-80
2021/12/19 15:56:32;;;;;;;32.35;6.35;;;;;;;;;;4991513;28;20137;-82
2021/12/19 15:58:59;;;;;;;30.02;6.18;;;;;;;;;;4975276;28;20094;-85
2021/12/19 16:01:27;;;;;;;31.55;8.45;;;;;;;;;;4997625;28;20072;-88
2021/12/19 16:03:54;;;;;;;28.35;8.13;;;;;;;;;;4986496;28;20050;-89